createdAt,value
2019-05-05T00:00:55.216Z,0.00
2019-05-05T00:01:55.608Z,0.00
2019-05-05T00:02:55.247Z,0.00
2019-05-05T00:03:55.189Z,0.00
2019-05-05T00:04:55.181Z,0.00
2019-05-05T00:05:55.173Z,0.00
2019-05-05T00:06:55.166Z,0.00
2019-05-05T00:07:55.156Z,0.00
2019-05-05T00:08:55.148Z,0.00
2019-05-05T00:09:55.200Z,0.00
2019-05-05T00:10:56.990Z,0.00
2019-05-05T00:11:55.124Z,0.00
2019-05-05T00:12:55.176Z,0.00
2019-05-05T00:13:55.195Z,0.09
2019-05-05T00:14:55.097Z,0.28
2019-05-05T00:15:55.209Z,0.85
2019-05-05T00:16:55.080Z,0.66
2019-05-05T00:17:55.117Z,0.38
2019-05-05T00:18:55.063Z,0.95
2019-05-05T00:19:55.099Z,1.70
2019-05-05T00:20:55.262Z,1.89
2019-05-05T00:21:55.190Z,3.03
2019-05-05T00:22:55.033Z,3.78
2019-05-05T00:23:55.410Z,3.13
2019-05-05T00:24:55.013Z,2.46
2019-05-05T00:25:55.389Z,2.84
2019-05-05T00:26:55.370Z,2.55
2019-05-05T00:27:54.991Z,2.55
2019-05-05T00:28:55.359Z,2.27
2019-05-05T00:29:54.973Z,2.27
2019-05-05T00:30:55.360Z,2.65
2019-05-05T00:31:54.955Z,1.79
2019-05-05T00:32:55.020Z,2.84
2019-05-05T00:33:54.940Z,4.16
2019-05-05T00:34:55.242Z,4.54
2019-05-05T00:35:54.922Z,5.02
2019-05-05T00:36:55.351Z,5.30
2019-05-05T00:37:54.906Z,6.06
2019-05-05T00:38:55.269Z,5.58
2019-05-05T00:39:54.891Z,6.53
2019-05-05T00:40:55.120Z,6.25
2019-05-05T00:41:55.500Z,6.82
2019-05-05T00:42:54.864Z,6.91
2019-05-05T00:43:55.389Z,6.91
2019-05-05T00:44:55.033Z,6.91
2019-05-05T00:45:55.664Z,5.96
2019-05-05T00:46:55.054Z,5.02
2019-05-05T00:47:54.822Z,4.83
2019-05-05T00:48:55.096Z,5.02
2019-05-05T00:49:56.300Z,5.87
2019-05-05T00:50:55.636Z,6.15
2019-05-05T00:51:54.790Z,5.21
2019-05-05T00:52:55.155Z,5.96
2019-05-05T00:53:55.474Z,6.25
2019-05-05T00:54:55.563Z,4.83
2019-05-05T00:55:54.794Z,4.54
2019-05-05T00:56:54.748Z,5.02
2019-05-05T00:57:54.927Z,4.73
2019-05-05T00:58:55.253Z,4.54
2019-05-05T00:59:54.722Z,3.88
2019-05-05T01:00:54.870Z,1.98
2019-05-05T01:01:55.264Z,1.79
2019-05-05T01:02:54.697Z,0.85
2019-05-05T01:03:54.733Z,0.95
2019-05-05T01:04:55.078Z,0.95
2019-05-05T01:05:55.313Z,1.98
2019-05-05T01:06:54.664Z,2.36
2019-05-05T01:07:54.801Z,2.08
2019-05-05T01:08:54.996Z,0.00
2019-05-05T01:09:54.639Z,0.00
2019-05-05T01:10:54.849Z,0.00
2019-05-05T01:11:55.056Z,0.00
2019-05-05T01:12:54.638Z,0.00
2019-05-05T01:13:54.797Z,0.00
2019-05-05T01:14:55.276Z,0.00
2019-05-05T01:15:54.588Z,0.00
2019-05-05T01:16:54.662Z,0.00
2019-05-05T01:17:55.317Z,0.00
2019-05-05T01:18:55.400Z,0.09
2019-05-05T01:20:03.454Z,1.32
2019-05-05T01:20:55.199Z,2.08
2019-05-05T01:21:54.541Z,2.08
2019-05-05T01:22:55.294Z,2.65
2019-05-05T01:23:54.925Z,0.76
2019-05-05T01:24:55.400Z,0.28
2019-05-05T01:25:54.551Z,0.66
2019-05-05T01:26:55.092Z,0.47
2019-05-05T01:27:54.617Z,0.00
2019-05-05T01:28:56.184Z,0.00
2019-05-05T01:29:54.695Z,0.00
2019-05-05T01:30:54.975Z,0.00
2019-05-05T01:31:54.468Z,0.00
2019-05-05T01:32:55.986Z,0.00
2019-05-05T01:33:54.441Z,0.00
2019-05-05T01:34:54.893Z,0.00
2019-05-05T01:35:55.211Z,0.00
2019-05-05T01:36:54.435Z,0.00
2019-05-05T01:37:54.876Z,0.00
2019-05-05T01:38:55.214Z,0.00
2019-05-05T01:39:54.391Z,0.00
2019-05-05T01:40:54.736Z,0.00
2019-05-05T01:41:54.399Z,0.00
2019-05-05T01:42:54.767Z,0.00
2019-05-05T01:43:54.358Z,0.00
2019-05-05T01:44:55.278Z,0.00
2019-05-05T01:45:54.668Z,0.00
2019-05-05T01:46:55.067Z,0.00
2019-05-05T01:47:54.590Z,0.00
2019-05-05T01:48:54.943Z,0.00
2019-05-05T01:49:54.562Z,0.00
2019-05-05T01:50:54.451Z,0.00
2019-05-05T01:51:55.317Z,0.00
2019-05-05T01:52:55.585Z,0.00
2019-05-05T01:53:54.656Z,0.00
2019-05-05T01:54:54.750Z,0.00
2019-05-05T01:55:54.360Z,0.00
2019-05-05T01:56:55.413Z,0.00
2019-05-05T01:57:54.393Z,0.00
2019-05-05T01:58:54.748Z,0.00
2019-05-05T01:59:55.195Z,0.00
2019-05-05T02:00:54.553Z,0.00
2019-05-05T02:01:55.091Z,0.00
2019-05-05T02:02:55.342Z,0.00
2019-05-05T02:03:54.872Z,0.00
2019-05-05T02:04:55.402Z,0.00
2019-05-05T02:05:54.579Z,0.00
2019-05-05T02:06:54.922Z,0.00
2019-05-05T02:07:55.335Z,0.00
2019-05-05T02:08:54.759Z,0.00
2019-05-05T02:09:55.382Z,0.00
2019-05-05T02:10:54.754Z,0.00
2019-05-05T02:11:54.706Z,0.00
2019-05-05T02:12:55.092Z,0.00
2019-05-05T02:13:54.601Z,0.00
2019-05-05T02:14:55.151Z,0.00
2019-05-05T02:15:55.246Z,0.00
2019-05-05T02:16:54.566Z,0.00
2019-05-05T02:17:55.043Z,0.00
2019-05-05T02:18:54.508Z,0.00
2019-05-05T02:19:54.995Z,0.00
2019-05-05T02:20:54.432Z,0.00
2019-05-05T02:21:54.728Z,0.00
2019-05-05T02:22:55.213Z,0.00
2019-05-05T02:23:54.774Z,0.00
2019-05-05T02:24:55.114Z,0.00
2019-05-05T02:25:55.315Z,0.00
2019-05-05T02:26:54.530Z,0.00
2019-05-05T02:27:54.839Z,0.00
2019-05-05T02:28:54.309Z,0.00
2019-05-05T02:29:54.908Z,0.00
2019-05-05T02:30:55.070Z,0.00
2019-05-05T02:31:55.267Z,0.00
2019-05-05T02:32:55.421Z,0.00
2019-05-05T02:33:56.599Z,0.00
2019-05-05T02:34:56.192Z,0.00
2019-05-05T02:35:55.666Z,0.00
2019-05-05T02:36:56.286Z,0.00
2019-05-05T02:37:55.770Z,0.00
2019-05-05T02:38:56.589Z,0.00
2019-05-05T02:40:02.028Z,0.00
2019-05-05T02:40:54.877Z,0.00
2019-05-05T02:41:54.786Z,0.00
2019-05-05T02:42:54.906Z,0.00
2019-05-05T02:43:55.750Z,0.00
2019-05-05T02:44:54.404Z,0.00
2019-05-05T02:45:55.196Z,0.00
2019-05-05T02:46:55.154Z,0.00
2019-05-05T02:47:54.916Z,0.00
2019-05-05T02:48:55.051Z,0.00
2019-05-05T02:49:54.866Z,0.00
2019-05-05T02:51:00.039Z,0.00
2019-05-05T02:51:55.261Z,0.00
2019-05-05T02:52:53.803Z,0.00
2019-05-05T02:53:53.806Z,0.00
2019-05-05T02:54:53.785Z,0.00
2019-05-05T02:55:53.779Z,0.00
2019-05-05T02:56:54.215Z,0.00
2019-05-05T02:57:54.430Z,0.00
2019-05-05T02:58:53.797Z,0.00
2019-05-05T02:59:53.996Z,0.00
2019-05-05T03:00:54.242Z,0.00
2019-05-05T03:01:53.920Z,0.00
2019-05-05T03:02:53.946Z,0.00
2019-05-05T03:03:54.286Z,0.00
2019-05-05T03:04:53.749Z,0.00
2019-05-05T03:05:53.907Z,0.00
2019-05-05T03:06:54.165Z,0.00
2019-05-05T03:07:54.352Z,0.00
2019-05-05T03:08:54.285Z,0.00
2019-05-05T03:09:54.523Z,0.00
2019-05-05T03:10:53.657Z,0.00
2019-05-05T03:11:54.112Z,0.00
2019-05-05T03:12:54.406Z,0.00
2019-05-05T03:13:53.667Z,0.00
2019-05-05T03:14:53.770Z,0.00
2019-05-05T03:15:55.072Z,0.00
2019-05-05T03:16:54.151Z,0.00
2019-05-05T03:17:53.788Z,0.00
2019-05-05T03:18:54.502Z,0.00
2019-05-05T03:19:53.666Z,0.00
2019-05-05T03:21:03.798Z,0.00
2019-05-05T03:21:54.562Z,0.00
2019-05-05T03:22:53.920Z,0.00
2019-05-05T03:23:54.788Z,0.00
2019-05-05T03:24:54.133Z,0.00
2019-05-05T03:25:54.555Z,0.00
2019-05-05T03:26:53.773Z,0.00
2019-05-05T03:27:53.802Z,0.00
2019-05-05T03:28:54.410Z,0.00
2019-05-05T03:29:53.655Z,0.00
2019-05-05T03:30:55.699Z,0.00
2019-05-05T03:31:56.254Z,0.00
2019-05-05T03:32:55.910Z,0.00
2019-05-05T03:33:54.916Z,0.00
2019-05-05T03:34:53.761Z,0.00
2019-05-05T03:35:54.127Z,0.00
2019-05-05T03:36:53.642Z,0.00
2019-05-05T03:37:54.495Z,0.00
2019-05-05T03:38:53.629Z,0.00
2019-05-05T03:39:53.719Z,0.00
2019-05-05T03:40:54.188Z,0.00
2019-05-05T03:41:54.305Z,0.00
2019-05-05T03:42:53.650Z,0.00
2019-05-05T03:43:56.928Z,0.00
2019-05-05T03:44:54.502Z,0.00
2019-05-05T03:45:53.805Z,0.00
2019-05-05T03:46:54.344Z,0.00
2019-05-05T03:47:54.151Z,0.00
2019-05-05T03:48:54.050Z,0.00
2019-05-05T03:49:53.650Z,0.00
2019-05-05T03:50:54.060Z,0.00
2019-05-05T03:51:54.343Z,0.00
2019-05-05T03:52:54.433Z,0.00
2019-05-05T03:53:53.553Z,0.00
2019-05-05T03:54:54.182Z,0.00
2019-05-05T03:55:54.506Z,0.00
2019-05-05T03:56:54.445Z,0.00
2019-05-05T03:57:53.806Z,0.00
2019-05-05T03:58:54.252Z,0.00
2019-05-05T03:59:54.791Z,0.00
2019-05-05T04:00:54.821Z,0.00
2019-05-05T04:01:54.581Z,0.00
2019-05-05T04:02:53.872Z,0.00
2019-05-05T04:03:54.093Z,0.00
2019-05-05T04:04:54.898Z,0.00
2019-05-05T04:05:53.810Z,0.00
2019-05-05T04:06:54.051Z,0.00
2019-05-05T04:07:54.558Z,0.00
2019-05-05T04:08:53.806Z,0.00
2019-05-05T04:09:54.235Z,0.00
2019-05-05T04:10:54.592Z,0.00
2019-05-05T04:11:53.988Z,0.00
2019-05-05T04:12:53.976Z,0.00
2019-05-05T04:13:54.240Z,0.00
2019-05-05T04:14:54.587Z,0.00
2019-05-05T04:15:53.532Z,0.00
2019-05-05T04:16:54.020Z,0.00
2019-05-05T04:17:53.583Z,0.00
2019-05-05T04:18:54.243Z,0.00
2019-05-05T04:19:54.207Z,0.00
2019-05-05T04:20:53.463Z,0.00
2019-05-05T04:21:53.649Z,0.00
2019-05-05T04:22:54.279Z,0.00
2019-05-05T04:23:53.513Z,0.00
2019-05-05T04:24:54.123Z,0.00
2019-05-05T04:25:54.428Z,0.00
2019-05-05T04:26:54.566Z,0.00
2019-05-05T04:27:53.828Z,0.00
2019-05-05T04:28:54.120Z,0.00
2019-05-05T04:29:54.490Z,0.00
2019-05-05T04:30:53.677Z,0.00
2019-05-05T04:31:54.065Z,0.00
2019-05-05T04:32:54.592Z,0.00
2019-05-05T04:33:53.835Z,0.00
2019-05-05T04:34:54.312Z,0.00
2019-05-05T04:35:54.552Z,0.00
2019-05-05T04:36:54.602Z,0.00
2019-05-05T04:37:54.239Z,0.00
2019-05-05T04:38:54.562Z,0.00
2019-05-05T04:39:53.749Z,0.00
2019-05-05T04:40:54.190Z,0.00
2019-05-05T04:41:54.584Z,0.00
2019-05-05T04:42:54.777Z,0.00
2019-05-05T04:43:54.540Z,0.00
2019-05-05T04:44:53.775Z,0.00
2019-05-05T04:45:54.100Z,0.00
2019-05-05T04:46:54.534Z,0.00
2019-05-05T04:47:53.925Z,0.00
2019-05-05T04:48:54.424Z,0.00
2019-05-05T04:49:53.829Z,0.00
2019-05-05T04:50:54.421Z,0.00
2019-05-05T04:51:53.882Z,0.00
2019-05-05T04:52:54.006Z,0.00
2019-05-05T04:53:54.317Z,0.00
2019-05-05T04:54:52.810Z,0.00
2019-05-05T04:55:53.580Z,0.00
2019-05-05T04:56:53.993Z,0.00
2019-05-05T04:57:54.064Z,0.00
2019-05-05T04:58:54.353Z,0.00
2019-05-05T04:59:53.987Z,0.00
2019-05-05T05:00:54.551Z,0.00
2019-05-05T05:01:54.454Z,0.00
2019-05-05T05:02:53.907Z,0.00
2019-05-05T05:03:54.301Z,0.00
2019-05-05T05:04:53.531Z,0.00
2019-05-05T05:05:53.635Z,0.00
2019-05-05T05:06:54.188Z,0.00
2019-05-05T05:07:54.626Z,0.00
2019-05-05T05:08:53.621Z,0.00
2019-05-05T05:09:53.988Z,0.00
2019-05-05T05:10:54.308Z,0.00
2019-05-05T05:11:54.565Z,0.00
2019-05-05T05:12:53.996Z,0.00
2019-05-05T05:13:54.386Z,0.00
2019-05-05T05:14:54.464Z,0.00
2019-05-05T05:15:53.953Z,0.00
2019-05-05T05:16:54.159Z,0.00
2019-05-05T05:17:53.499Z,0.00
2019-05-05T05:18:53.768Z,0.00
2019-05-05T05:19:54.206Z,0.00
2019-05-05T05:20:54.636Z,0.00
2019-05-05T05:22:01.162Z,0.00
2019-05-05T05:22:54.306Z,0.00
2019-05-05T05:23:53.612Z,0.00
2019-05-05T05:24:54.128Z,0.00
2019-05-05T05:25:54.252Z,0.00
2019-05-05T05:26:52.569Z,0.00
2019-05-05T05:27:53.598Z,0.00
2019-05-05T05:28:53.872Z,0.00
2019-05-05T05:29:54.242Z,0.00
2019-05-05T05:30:54.353Z,0.00
2019-05-05T05:31:53.487Z,0.00
2019-05-05T05:32:53.904Z,0.00
2019-05-05T05:33:52.517Z,0.00
2019-05-05T05:34:54.140Z,0.00
2019-05-05T05:35:54.461Z,0.00
2019-05-05T05:36:53.626Z,0.00
2019-05-05T05:37:54.290Z,0.00
2019-05-05T05:38:54.034Z,0.00
2019-05-05T05:39:54.445Z,0.00
2019-05-05T05:40:53.611Z,0.00
2019-05-05T05:41:54.075Z,0.00
2019-05-05T05:42:54.094Z,0.00
2019-05-05T05:43:54.044Z,0.00
2019-05-05T05:44:53.516Z,0.00
2019-05-05T05:45:54.103Z,0.00
2019-05-05T05:46:54.463Z,0.00
2019-05-05T05:47:53.679Z,0.00
2019-05-05T05:48:53.925Z,0.00
2019-05-05T05:49:54.328Z,0.00
2019-05-05T05:50:53.663Z,0.00
2019-05-05T05:51:53.824Z,0.00
2019-05-05T05:52:54.032Z,0.00
2019-05-05T05:53:54.265Z,0.00
2019-05-05T05:54:53.544Z,0.00
2019-05-05T05:55:53.802Z,0.00
2019-05-05T05:56:53.851Z,0.00
2019-05-05T05:57:54.018Z,0.00
2019-05-05T05:58:54.174Z,0.00
2019-05-05T05:59:52.333Z,0.00
2019-05-05T06:00:53.952Z,0.00
2019-05-05T06:02:06.646Z,0.00
2019-05-05T06:02:54.414Z,0.00
2019-05-05T06:03:53.637Z,0.00
2019-05-05T06:04:53.906Z,0.00
2019-05-05T06:05:53.885Z,0.00
2019-05-05T06:06:54.250Z,0.00
2019-05-05T06:07:54.266Z,0.00
2019-05-05T06:08:54.265Z,0.00
2019-05-05T06:09:54.033Z,0.00
2019-05-05T06:10:54.521Z,0.00
2019-05-05T06:11:54.067Z,0.00
2019-05-05T06:12:54.132Z,0.00
2019-05-05T06:13:54.076Z,0.00
2019-05-05T06:14:53.729Z,0.00
2019-05-05T06:15:53.540Z,0.00
2019-05-05T06:16:53.841Z,0.00
2019-05-05T06:17:53.810Z,0.00
2019-05-05T06:18:54.140Z,0.00
2019-05-05T06:19:53.434Z,0.00
2019-05-05T06:20:53.765Z,0.00
2019-05-05T06:21:54.136Z,0.00
2019-05-05T06:22:53.588Z,0.00
2019-05-05T06:23:53.770Z,0.00
2019-05-05T06:24:53.967Z,0.00
2019-05-05T06:25:52.159Z,0.00
2019-05-05T06:26:52.152Z,0.00
2019-05-05T06:27:54.059Z,0.00
2019-05-05T06:28:53.962Z,0.00
2019-05-05T06:29:54.145Z,0.00
2019-05-05T06:30:54.469Z,0.00
2019-05-05T06:31:53.760Z,0.00
2019-05-05T06:32:54.201Z,0.00
2019-05-05T06:33:54.209Z,0.00
2019-05-05T06:34:53.454Z,0.00
2019-05-05T06:35:53.578Z,0.00
2019-05-05T06:36:53.683Z,0.00
2019-05-05T06:37:53.969Z,0.00
2019-05-05T06:38:54.021Z,0.00
2019-05-05T06:39:52.069Z,0.00
2019-05-05T06:40:53.678Z,0.00
2019-05-05T06:41:53.810Z,0.00
2019-05-05T06:42:53.902Z,0.00
2019-05-05T06:43:52.044Z,0.00
2019-05-05T06:44:53.526Z,0.00
2019-05-05T06:45:53.556Z,0.00
2019-05-05T06:46:53.618Z,0.00
2019-05-05T06:47:53.651Z,0.00
2019-05-05T06:48:53.752Z,0.00
2019-05-05T06:49:54.076Z,0.00
2019-05-05T06:50:52.001Z,0.00
2019-05-05T06:51:51.993Z,0.00
2019-05-05T06:52:53.584Z,0.00
2019-05-05T06:53:53.869Z,0.00
2019-05-05T06:54:54.146Z,0.00
2019-05-05T06:55:54.122Z,0.00
2019-05-05T06:56:53.737Z,0.00
2019-05-05T06:57:53.764Z,0.00
2019-05-05T06:58:53.899Z,0.00
2019-05-05T06:59:51.946Z,0.00
2019-05-05T07:00:54.151Z,0.00
2019-05-05T07:01:53.598Z,1.14
2019-05-05T07:02:53.926Z,3.89
2019-05-05T07:03:54.066Z,6.55
2019-05-05T07:04:51.915Z,3.70
2019-05-05T07:05:53.787Z,1.52
2019-05-05T07:06:56.775Z,0.57
2019-05-05T07:07:53.655Z,0.28
2019-05-05T07:08:51.891Z,3.80
2019-05-05T07:09:54.156Z,7.79
2019-05-05T07:10:51.880Z,6.27
2019-05-05T07:11:53.935Z,4.94
2019-05-05T07:12:51.869Z,5.89
2019-05-05T07:13:53.695Z,7.79
2019-05-05T07:14:53.654Z,11.50
2019-05-05T07:15:54.097Z,11.88
2019-05-05T07:16:51.847Z,13.59
2019-05-05T07:17:53.570Z,15.01
2019-05-05T07:18:53.783Z,14.35
2019-05-05T07:19:54.123Z,13.78
2019-05-05T07:20:51.825Z,12.63
2019-05-05T07:21:53.618Z,11.02
2019-05-05T07:23:01.511Z,12.35
2019-05-05T07:23:53.690Z,15.77
2019-05-05T07:24:54.029Z,14.92
2019-05-05T07:25:51.797Z,20.24
2019-05-05T07:26:53.951Z,16.44
2019-05-05T07:27:51.786Z,22.61
2019-05-05T07:28:53.943Z,20.90
2019-05-05T07:29:53.631Z,19.67
2019-05-05T07:30:51.811Z,24.52
2019-05-05T07:31:51.765Z,22.44
2019-05-05T07:32:53.655Z,26.04
2019-05-05T07:33:51.758Z,24.34
2019-05-05T07:34:51.750Z,25.95
2019-05-05T07:35:56.829Z,26.98
2019-05-05T07:36:51.741Z,25.09
2019-05-05T07:37:53.746Z,29.64
2019-05-05T07:38:51.730Z,28.13
2019-05-05T07:39:53.903Z,26.14
2019-05-05T07:40:51.719Z,28.05
2019-05-05T07:41:53.975Z,29.28
2019-05-05T07:42:53.936Z,30.23
2019-05-05T07:43:51.703Z,30.99
2019-05-05T07:44:51.699Z,23.86
2019-05-05T07:45:53.882Z,29.95
2019-05-05T07:46:51.690Z,32.80
2019-05-05T07:47:51.684Z,29.96
2019-05-05T07:48:51.679Z,34.91
2019-05-05T07:49:53.428Z,33.48
2019-05-05T07:50:59.782Z,36.72
2019-05-05T07:51:51.677Z,41.00
2019-05-05T07:52:51.661Z,40.81
2019-05-05T07:53:51.656Z,42.14
2019-05-05T07:54:51.651Z,40.52
2019-05-05T07:55:51.646Z,37.95
2019-05-05T07:56:53.638Z,41.95
2019-05-05T07:57:53.298Z,39.95
2019-05-05T07:58:51.631Z,39.09
2019-05-05T07:59:53.857Z,39.95
2019-05-05T08:00:51.622Z,46.51
2019-05-05T08:01:51.621Z,48.23
2019-05-05T08:02:51.617Z,45.09
2019-05-05T08:03:53.695Z,43.66
2019-05-05T08:04:51.606Z,44.33
2019-05-05T08:05:51.600Z,44.04
2019-05-05T08:06:53.697Z,44.90
2019-05-05T08:07:53.403Z,45.85
2019-05-05T08:08:51.589Z,44.80
2019-05-05T08:09:53.559Z,46.80
2019-05-05T08:10:51.579Z,47.28
2019-05-05T08:11:51.575Z,47.58
2019-05-05T08:12:51.573Z,52.63
2019-05-05T08:13:51.567Z,49.68
2019-05-05T08:14:53.591Z,50.35
2019-05-05T08:15:59.025Z,49.58
2019-05-05T08:16:53.476Z,53.11
2019-05-05T08:17:51.553Z,51.01
2019-05-05T08:18:51.550Z,57.96
2019-05-05T08:19:51.545Z,55.49
2019-05-05T08:20:53.588Z,50.73
2019-05-05T08:21:51.538Z,54.66
2019-05-05T08:22:53.543Z,59.61
2019-05-05T08:23:51.531Z,56.27
2019-05-05T08:24:51.527Z,52.18
2019-05-05T08:25:51.532Z,59.51
2019-05-05T08:26:51.542Z,58.94
2019-05-05T08:27:53.559Z,62.68
2019-05-05T08:28:51.516Z,64.02
2019-05-05T08:29:51.513Z,67.51
2019-05-05T08:30:51.508Z,65.13
2019-05-05T08:31:53.577Z,61.99
2019-05-05T08:32:51.502Z,63.04
2019-05-05T08:33:51.500Z,64.37
2019-05-05T08:34:59.837Z,68.30
2019-05-05T08:35:51.495Z,69.17
2019-05-05T08:36:53.707Z,72.88
2019-05-05T08:37:51.490Z,77.53
2019-05-05T08:38:51.486Z,76.75
2019-05-05T08:39:51.484Z,83.76
2019-05-05T08:40:51.485Z,89.53
2019-05-05T08:41:53.685Z,88.87
2019-05-05T08:45:14.258Z,88.39
2019-05-05T08:46:15.268Z,89.20
2019-05-05T08:47:14.257Z,88.71
2019-05-05T08:48:14.370Z,87.80
2019-05-05T08:49:14.258Z,84.65
2019-05-05T08:50:14.259Z,84.98
2019-05-05T08:51:14.301Z,86.04
2019-05-05T08:52:14.602Z,83.30
2019-05-05T08:53:14.269Z,83.05
2019-05-05T08:54:14.403Z,80.70
2019-05-05T08:55:14.271Z,75.39
2019-05-05T08:56:14.724Z,76.79
2019-05-05T08:57:14.671Z,77.34
2019-05-05T08:59:14.476Z,82.46
2019-05-05T09:00:14.295Z,82.17
2019-05-05T09:01:14.966Z,79.49
2019-05-05T09:02:15.010Z,80.33
2019-05-05T09:03:14.301Z,78.20
2019-05-05T09:04:14.345Z,72.27
2019-05-05T09:05:14.517Z,67.56
2019-05-05T09:06:14.315Z,68.55
2019-05-05T09:07:14.319Z,69.50
2019-05-05T09:08:14.323Z,72.41
2019-05-05T09:09:14.545Z,69.76
2019-05-05T09:10:14.387Z,70.98
2019-05-05T09:11:14.340Z,68.33
2019-05-05T09:12:14.343Z,68.85
2019-05-05T09:13:14.485Z,67.76
2019-05-05T09:14:14.882Z,67.41
2019-05-05T09:15:14.359Z,69.79
2019-05-05T09:16:14.604Z,73.32
2019-05-05T09:17:14.372Z,78.77
2019-05-05T09:18:14.376Z,82.98
2019-05-05T09:19:14.668Z,85.64
2019-05-05T09:20:14.387Z,87.36
2019-05-05T09:21:14.389Z,87.79
2019-05-05T09:22:14.400Z,86.46
2019-05-05T09:23:14.862Z,86.61
2019-05-05T09:24:14.435Z,83.18
2019-05-05T09:25:14.401Z,82.90
2019-05-05T09:26:14.404Z,86.80
2019-05-05T09:27:14.411Z,85.71
2019-05-05T09:28:14.761Z,84.56
2019-05-05T09:29:14.407Z,82.86
2019-05-05T09:30:15.826Z,80.10
2019-05-05T09:31:14.695Z,77.43
2019-05-05T09:32:14.410Z,79.91
2019-05-05T09:33:17.815Z,76.10
2019-05-05T09:34:14.743Z,72.58
2019-05-05T09:35:14.410Z,75.72
2019-05-05T09:36:14.411Z,78.38
2019-05-05T09:37:14.493Z,77.91
2019-05-05T09:38:14.809Z,83.28
2019-05-05T09:39:14.408Z,82.61
2019-05-05T09:40:14.408Z,85.75
2019-05-05T09:41:14.441Z,82.04
2019-05-05T09:42:14.639Z,80.52
2019-05-05T09:43:14.844Z,81.60
2019-05-05T09:44:14.409Z,81.70
2019-05-05T09:45:14.398Z,84.65
2019-05-05T09:46:14.525Z,89.41
2019-05-05T09:47:14.397Z,94.22
2019-05-05T09:48:14.406Z,92.03
2019-05-05T09:49:14.393Z,91.94
2019-05-05T09:50:14.460Z,92.50
2019-05-05T09:51:14.392Z,93.27
2019-05-05T09:52:14.389Z,94.03
2019-05-05T09:53:14.683Z,94.03
2019-05-05T09:54:17.123Z,93.93
2019-05-05T09:55:14.384Z,91.74
2019-05-05T09:56:14.620Z,92.32
2019-05-05T09:57:14.647Z,94.03
2019-05-05T09:58:14.382Z,93.65
2019-05-05T09:59:14.378Z,93.55
2019-05-05T10:00:14.376Z,94.41
2019-05-05T10:01:14.373Z,91.74
2019-05-05T10:02:14.372Z,93.08
2019-05-05T10:03:14.506Z,91.74
2019-05-05T10:04:14.383Z,91.65
2019-05-05T10:05:14.651Z,91.98
2019-05-05T10:06:14.416Z,91.69
2019-05-05T10:07:14.366Z,92.93
2019-05-05T10:08:14.458Z,91.31
2019-05-05T10:09:14.361Z,90.55
2019-05-05T10:10:14.360Z,91.46
2019-05-05T10:11:16.534Z,91.74
2019-05-05T10:12:14.358Z,91.64
2019-05-05T10:13:14.919Z,90.50
2019-05-05T10:14:14.479Z,90.12
2019-05-05T10:15:14.352Z,90.31
2019-05-05T10:16:14.410Z,89.83
2019-05-05T10:17:14.352Z,89.64
2019-05-05T10:18:14.391Z,90.22
2019-05-05T10:19:14.347Z,89.07
2019-05-05T10:20:14.604Z,90.22
2019-05-05T10:21:17.275Z,90.03
2019-05-05T10:22:14.796Z,90.98
2019-05-05T10:23:14.401Z,90.74
2019-05-05T10:24:27.434Z,91.98
2019-05-05T10:25:14.343Z,89.79
2019-05-05T10:26:14.911Z,86.32
2019-05-05T10:27:14.336Z,83.23
2019-05-05T10:28:14.335Z,81.43
2019-05-05T10:29:14.332Z,73.59
2019-05-05T10:30:14.357Z,68.84
2019-05-05T10:31:14.328Z,63.60
2019-05-05T10:32:14.330Z,55.15
2019-05-05T10:33:14.450Z,51.53
2019-05-05T10:34:14.321Z,50.29
2019-05-05T10:35:14.415Z,53.05
2019-05-05T10:36:14.326Z,54.29
2019-05-05T10:37:14.387Z,59.80
2019-05-05T10:38:14.473Z,62.94
2019-05-05T10:39:14.314Z,57.84
2019-05-05T10:40:14.307Z,56.12
2019-05-05T10:41:14.303Z,65.35
2019-05-05T10:42:14.585Z,69.63
2019-05-05T10:43:14.854Z,64.43
2019-05-05T10:44:14.296Z,62.62
2019-05-05T10:45:14.291Z,69.38
2019-05-05T10:46:14.404Z,70.90
2019-05-05T10:47:14.285Z,72.05
2019-05-05T10:48:14.515Z,76.81
2019-05-05T10:49:14.279Z,74.08
2019-05-05T10:50:14.277Z,83.32
2019-05-05T10:51:14.274Z,84.83
2019-05-05T10:52:14.426Z,85.64
2019-05-05T10:53:14.270Z,94.07
2019-05-05T10:54:14.344Z,94.79
2019-05-05T10:55:14.585Z,92.12
2019-05-05T10:56:14.263Z,91.60
2019-05-05T10:57:15.520Z,91.69
2019-05-05T10:58:14.270Z,93.79
2019-05-05T10:59:14.257Z,91.69
2019-05-05T11:00:15.575Z,92.27
2019-05-05T11:01:14.623Z,92.17
2019-05-05T11:02:14.275Z,92.74
2019-05-05T11:03:14.938Z,92.36
2019-05-05T11:04:14.248Z,90.64
2019-05-05T11:05:14.245Z,90.55
2019-05-05T11:06:14.244Z,95.12
2019-05-05T11:07:14.711Z,92.74
2019-05-05T11:08:14.257Z,91.69
2019-05-05T11:09:14.249Z,90.26
2019-05-05T11:10:14.273Z,91.13
2019-05-05T11:11:14.237Z,92.03
2019-05-05T11:12:14.492Z,92.22
2019-05-05T11:13:14.235Z,93.74
2019-05-05T11:14:14.374Z,93.65
2019-05-05T11:15:14.309Z,91.88
2019-05-05T11:16:14.554Z,90.03
2019-05-05T11:17:14.558Z,88.78
2019-05-05T11:18:15.058Z,88.40
2019-05-05T11:19:14.221Z,89.74
2019-05-05T11:20:14.532Z,90.73
2019-05-05T11:21:14.543Z,87.16
2019-05-05T11:22:14.737Z,85.06
2019-05-05T11:23:14.992Z,84.49
2019-05-05T11:24:14.666Z,85.25
2019-05-05T11:25:14.211Z,86.30
2019-05-05T11:26:14.455Z,86.59
2019-05-05T11:27:14.208Z,86.11
2019-05-05T11:28:14.207Z,86.02
2019-05-05T11:29:14.202Z,84.49
2019-05-05T11:30:14.404Z,85.21
2019-05-05T11:31:14.199Z,86.54
2019-05-05T11:32:15.338Z,85.58
2019-05-05T11:33:14.308Z,84.92
2019-05-05T11:34:14.208Z,84.34
2019-05-05T11:35:14.189Z,81.54
2019-05-05T11:36:14.188Z,82.97
2019-05-05T11:37:14.188Z,84.59
2019-05-05T11:38:14.272Z,83.87
2019-05-05T11:39:14.814Z,82.87
2019-05-05T11:40:14.180Z,79.82
2019-05-05T11:41:14.494Z,81.06
2019-05-05T11:42:14.627Z,82.78
2019-05-05T11:43:14.342Z,83.54
2019-05-05T11:44:15.205Z,82.20
2019-05-05T11:45:14.880Z,82.11
2019-05-05T11:46:14.291Z,81.25
2019-05-05T11:47:14.163Z,82.20
2019-05-05T11:48:14.812Z,83.77
2019-05-05T11:49:14.158Z,81.73
2019-05-05T11:50:14.158Z,81.82
2019-05-05T11:51:15.059Z,81.58
2019-05-05T11:52:14.151Z,81.77
2019-05-05T11:53:14.523Z,82.82
2019-05-05T11:54:14.232Z,82.72
2019-05-05T11:55:15.003Z,80.62
2019-05-05T11:56:14.556Z,79.57
2019-05-05T11:57:14.139Z,79.28
2019-05-05T11:58:14.465Z,79.86
2019-05-05T11:59:14.545Z,81.01
2019-05-05T12:00:14.214Z,81.01
2019-05-05T12:01:14.156Z,82.06
2019-05-05T12:02:14.156Z,82.82
2019-05-05T12:03:14.507Z,82.82
2019-05-05T12:04:14.563Z,82.57
2019-05-05T12:05:14.173Z,82.67
2019-05-05T12:06:14.659Z,83.20
2019-05-05T12:07:14.674Z,84.86
2019-05-05T12:08:14.635Z,81.86
2019-05-05T12:09:14.124Z,83.24
2019-05-05T12:10:14.109Z,83.05
2019-05-05T12:11:15.077Z,81.90
2019-05-05T12:12:14.317Z,81.52
2019-05-05T12:13:14.748Z,81.24
2019-05-05T12:14:14.354Z,80.85
2019-05-05T12:15:14.100Z,83.43
2019-05-05T12:16:14.109Z,83.00
2019-05-05T12:17:14.094Z,84.66
2019-05-05T12:18:14.483Z,81.13
2019-05-05T12:19:14.091Z,78.93
2019-05-05T12:20:14.090Z,76.46
2019-05-05T12:21:14.200Z,78.09
2019-05-05T12:22:14.086Z,78.37
2019-05-05T12:23:14.084Z,79.00
2019-05-05T12:24:14.375Z,78.91
2019-05-05T12:25:25.099Z,79.53
2019-05-05T12:26:14.079Z,80.53
2019-05-05T12:27:14.178Z,79.35
2019-05-05T12:28:14.079Z,81.35
2019-05-05T12:29:14.160Z,82.30
2019-05-05T12:30:14.229Z,82.68
2019-05-05T12:31:14.184Z,83.64
2019-05-05T12:32:14.862Z,84.01
2019-05-05T12:33:14.070Z,85.54
2019-05-05T12:34:14.063Z,84.16
2019-05-05T12:35:14.809Z,85.60
2019-05-05T12:36:15.048Z,86.83
2019-05-05T12:37:14.329Z,86.26
2019-05-05T12:38:14.055Z,86.88
2019-05-05T12:39:14.272Z,87.74
2019-05-05T12:40:14.427Z,87.83
2019-05-05T12:41:14.836Z,87.54
2019-05-05T12:42:14.217Z,86.59
2019-05-05T12:43:14.248Z,87.45
2019-05-05T12:44:14.346Z,88.12
2019-05-05T12:45:14.039Z,88.16
2019-05-05T12:46:14.037Z,88.02
2019-05-05T12:47:14.459Z,88.69
2019-05-05T12:48:14.029Z,88.64
2019-05-05T12:49:14.039Z,88.69
2019-05-05T12:50:14.026Z,87.54
2019-05-05T12:51:14.695Z,87.64
2019-05-05T12:52:14.059Z,88.31
2019-05-05T12:53:14.516Z,87.64
2019-05-05T12:54:14.687Z,86.92
2019-05-05T12:55:14.337Z,86.69
2019-05-05T12:56:14.575Z,86.98
2019-05-05T12:57:14.007Z,86.30
2019-05-05T12:58:14.012Z,86.30
2019-05-05T12:59:14.331Z,86.59
2019-05-05T13:00:14.621Z,85.73
2019-05-05T13:01:14.360Z,85.58
2019-05-05T13:02:14.337Z,85.49
2019-05-05T13:03:13.994Z,85.30
2019-05-05T13:04:14.197Z,85.49
2019-05-05T13:05:14.448Z,86.20
2019-05-05T13:06:14.576Z,84.63
2019-05-05T13:07:13.985Z,84.34
2019-05-05T13:08:14.365Z,84.58
2019-05-05T13:09:13.982Z,84.86
2019-05-05T13:10:13.980Z,84.48